createdAt,value
2016-10-25T00:00:58.882Z,58.5
2016-10-25T00:01:58.865Z,57.92
2016-10-25T00:02:58.853Z,58.12
2016-10-25T00:03:58.836Z,57.83
2016-10-25T00:04:58.503Z,58.12
2016-10-25T00:05:58.802Z,58.12
2016-10-25T00:06:58.785Z,57.73
2016-10-25T00:07:58.768Z,58.31
2016-10-25T00:08:58.752Z,58.31
2016-10-25T00:09:58.735Z,57.73
2016-10-25T00:10:58.722Z,58.22
2016-10-25T00:11:58.424Z,57.73
2016-10-25T00:12:58.689Z,57.92
2016-10-25T00:13:58.668Z,58.12
2016-10-25T00:14:58.657Z,57.92
2016-10-25T00:15:58.634Z,57.92
2016-10-25T00:16:58.624Z,57.9
2016-10-25T00:17:58.601Z,58.22
2016-10-25T00:18:58.272Z,58.12
2016-10-25T00:19:58.575Z,57.92
2016-10-25T00:20:58.559Z,58.12
2016-10-25T00:21:58.540Z,57.92
2016-10-25T00:22:58.525Z,57.83
2016-10-25T00:23:58.504Z,57.73
2016-10-25T00:24:58.183Z,58.09
2016-10-25T00:25:58.161Z,58.12
2016-10-25T00:26:58.452Z,57.83
2016-10-25T00:27:58.443Z,58.02
2016-10-25T00:28:58.428Z,58.02
2016-10-25T00:29:58.403Z,58.12
2016-10-25T00:30:58.079Z,57.83
2016-10-25T00:31:58.380Z,58.31
2016-10-25T00:32:58.049Z,58.4
2016-10-25T00:33:58.350Z,57.92
2016-10-25T00:34:58.326Z,58.12
2016-10-25T00:35:58.314Z,58.37
2016-10-25T00:36:58.298Z,57.92
2016-10-25T00:37:58.279Z,58.09
2016-10-25T00:38:58.260Z,58.6
2016-10-25T00:39:58.248Z,58.09
2016-10-25T00:40:58.233Z,57.92
2016-10-25T00:41:57.901Z,58.31
2016-10-25T00:42:58.203Z,58.31
2016-10-25T00:43:58.184Z,57.83
2016-10-25T00:44:58.170Z,58.22
2016-10-25T00:45:58.150Z,57.8
2016-10-25T00:46:58.132Z,57.8
2016-10-25T00:47:58.119Z,57.7
2016-10-25T00:48:58.103Z,57.83
2016-10-25T00:49:57.769Z,57.9
2016-10-25T00:50:58.067Z,58.18
2016-10-25T00:51:58.088Z,57.99
2016-10-25T00:52:58.036Z,57.99
2016-10-25T00:53:57.707Z,57.92
2016-10-25T00:54:58.003Z,57.9
2016-10-25T00:55:57.983Z,58.09
2016-10-25T00:56:57.968Z,57.99
2016-10-25T00:57:57.951Z,58.47
2016-10-25T00:58:57.933Z,58.76
2016-10-25T00:59:57.927Z,58.28
2016-10-25T01:00:57.919Z,58.28
2016-10-25T01:01:57.882Z,57.99
2016-10-25T01:02:57.871Z,58.28
2016-10-25T01:03:57.860Z,58.37
2016-10-25T01:04:57.841Z,58.37
2016-10-25T01:05:57.823Z,58.67
2016-10-25T01:06:57.806Z,58.18
2016-10-25T01:07:57.790Z,58.57
2016-10-25T01:08:57.465Z,58.67
2016-10-25T01:09:57.766Z,58.67
2016-10-25T01:10:57.741Z,58.67
2016-10-25T01:11:57.723Z,58.67
2016-10-25T01:12:57.707Z,58.67
2016-10-25T01:13:57.691Z,58.67
2016-10-25T01:14:57.673Z,58.67
2016-10-25T01:15:57.657Z,58.57
2016-10-25T01:16:57.635Z,58.57
2016-10-25T01:17:57.631Z,58.76
2016-10-25T01:18:57.297Z,58.76
2016-10-25T01:19:57.306Z,58.67
2016-10-25T01:20:57.579Z,58.67
2016-10-25T01:21:57.560Z,58.57
2016-10-25T01:22:57.542Z,58.67
2016-10-25T01:23:57.213Z,58.76
2016-10-25T01:24:57.512Z,58.76
2016-10-25T01:25:57.493Z,58.67
2016-10-25T01:26:57.483Z,58.57
2016-10-25T01:27:57.460Z,58.57
2016-10-25T01:28:57.453Z,58.47
2016-10-25T01:29:57.428Z,58.57
2016-10-25T01:30:57.415Z,58.09
2016-10-25T01:31:57.392Z,58.18
2016-10-25T01:32:57.378Z,58.37
2016-10-25T01:33:57.363Z,58.47
2016-10-25T01:34:57.348Z,58.47
2016-10-25T01:35:57.336Z,58.47
2016-10-25T01:36:57.314Z,58.57
2016-10-25T01:37:57.303Z,58.28
2016-10-25T01:38:57.281Z,58.37
2016-10-25T01:39:57.263Z,58.47
2016-10-25T01:40:57.250Z,58.57
2016-10-25T01:41:57.231Z,58.57
2016-10-25T01:42:57.218Z,58.37
2016-10-25T01:43:57.196Z,58.28
2016-10-25T01:44:57.185Z,58.47
2016-10-25T01:45:57.168Z,58.18
2016-10-25T01:46:57.149Z,58.37
2016-10-25T01:47:57.134Z,58.57
2016-10-25T01:48:57.124Z,58.28
2016-10-25T01:49:57.099Z,58.57
2016-10-25T01:50:57.100Z,58.28
2016-10-25T01:51:57.068Z,58.18
2016-10-25T01:52:57.053Z,58.18
2016-10-25T01:53:57.038Z,58.47
2016-10-25T01:54:57.013Z,58.47
2016-10-25T01:55:56.998Z,58.57
2016-10-25T01:56:56.987Z,58.37
2016-10-25T01:57:56.655Z,58.57
2016-10-25T01:58:56.954Z,58.18
2016-10-25T01:59:56.935Z,58.47
2016-10-25T02:00:56.922Z,58.47
2016-10-25T02:01:56.905Z,58.47
2016-10-25T02:02:56.884Z,58.37
2016-10-25T02:03:56.870Z,58.57
2016-10-25T02:04:56.845Z,58.28
2016-10-25T02:05:56.838Z,58.57
2016-10-25T02:06:56.824Z,58.37
2016-10-25T02:07:56.801Z,58.18
2016-10-25T02:08:56.794Z,58.76
2016-10-25T02:09:56.769Z,58.18
2016-10-25T02:10:56.754Z,58.18
2016-10-25T02:11:56.735Z,58.76
2016-10-25T02:12:56.723Z,58.18
2016-10-25T02:13:56.708Z,58.76
2016-10-25T02:14:56.687Z,58.57
2016-10-25T02:15:56.677Z,58.57
2016-10-25T02:16:56.656Z,58.37
2016-10-25T02:17:56.645Z,58.37
2016-10-25T02:18:56.624Z,58.76
2016-10-25T02:19:56.609Z,58.67
2016-10-25T02:20:56.589Z,58.76
2016-10-25T02:21:56.566Z,58.57
2016-10-25T02:22:56.556Z,58.57
2016-10-25T02:23:56.574Z,58.37
2016-10-25T02:24:56.527Z,58.28
2016-10-25T02:25:56.193Z,58.09
2016-10-25T02:26:56.494Z,58.57
2016-10-25T02:27:56.475Z,58.18
2016-10-25T02:28:56.462Z,58.86
2016-10-25T02:29:56.445Z,58.86
2016-10-25T02:30:56.422Z,58.57
2016-10-25T02:31:56.407Z,58.28
2016-10-25T02:32:56.079Z,58.37
2016-10-25T02:33:56.382Z,58.57
2016-10-25T02:34:56.359Z,58.67
2016-10-25T02:35:56.027Z,58.28
2016-10-25T02:36:56.324Z,58.18
2016-10-25T02:37:56.315Z,58.67
2016-10-25T02:38:56.295Z,58.67
2016-10-25T02:39:55.960Z,58.57
2016-10-25T02:40:56.256Z,58.67
2016-10-25T02:41:56.242Z,58.67
2016-10-25T02:42:56.228Z,58.47
2016-10-25T02:43:56.210Z,58.95
2016-10-25T02:44:56.192Z,58.95
2016-10-25T02:45:56.175Z,58.57
2016-10-25T02:46:56.200Z,58.47
2016-10-25T02:47:56.143Z,58.95
2016-10-25T02:48:56.129Z,58.76
2016-10-25T02:49:56.110Z,58.76
2016-10-25T02:50:56.097Z,58.47
2016-10-25T02:51:56.076Z,58.54
2016-10-25T02:52:56.061Z,58.57
2016-10-25T02:53:56.042Z,58.76
2016-10-25T02:54:56.028Z,58.57
2016-10-25T02:55:56.012Z,58.57
2016-10-25T02:56:55.991Z,58.57
2016-10-25T02:57:55.986Z,58.76
2016-10-25T02:58:55.959Z,58.86
2016-10-25T02:59:55.943Z,58.57
2016-10-25T03:00:55.926Z,58.47
2016-10-25T03:01:55.906Z,58.76
2016-10-25T03:02:55.907Z,58.67
2016-10-25T03:03:55.912Z,58.57
2016-10-25T03:04:55.858Z,58.37
2016-10-25T03:05:55.841Z,58.57
2016-10-25T03:06:55.840Z,58.67
2016-10-25T03:07:55.806Z,58.67
2016-10-25T03:08:55.803Z,58.73
2016-10-25T03:09:55.776Z,58.57
2016-10-25T03:10:55.759Z,58.67
2016-10-25T03:11:55.781Z,58.57
2016-10-25T03:12:55.726Z,58.57
2016-10-25T03:13:55.709Z,58.67
2016-10-25T03:14:55.382Z,58.76
2016-10-25T03:15:55.681Z,58.67
2016-10-25T03:16:55.662Z,58.73
2016-10-25T03:17:55.642Z,58.57
2016-10-25T03:18:55.626Z,58.67
2016-10-25T03:19:55.611Z,58.54
2016-10-25T03:20:55.596Z,58.95
2016-10-25T03:21:55.576Z,58.73
2016-10-25T03:22:55.571Z,58.73
2016-10-25T03:23:55.540Z,58.76
2016-10-25T03:24:55.525Z,58.64
2016-10-25T03:25:55.548Z,58.83
2016-10-25T03:26:55.490Z,58.92
2016-10-25T03:27:55.479Z,58.92
2016-10-25T03:28:55.462Z,59.15
2016-10-25T03:29:55.445Z,59.02
2016-10-25T03:30:55.425Z,59.02
2016-10-25T03:31:55.098Z,58.64
2016-10-25T03:32:55.395Z,58.54
2016-10-25T03:33:55.378Z,58.92
2016-10-25T03:34:55.358Z,58.57
2016-10-25T03:35:55.341Z,58.64
2016-10-25T03:36:55.326Z,58.67
2016-10-25T03:37:55.311Z,58.73
2016-10-25T03:38:54.983Z,58.64
2016-10-25T03:39:55.280Z,58.64
2016-10-25T03:40:55.262Z,58.64
2016-10-25T03:41:55.247Z,58.67
2016-10-25T03:42:55.224Z,58.54
2016-10-25T03:43:55.211Z,58.83
2016-10-25T03:44:55.188Z,58.64
2016-10-25T03:45:55.175Z,58.83
2016-10-25T03:46:55.160Z,58.54
2016-10-25T03:47:54.837Z,58.64
2016-10-25T03:48:55.127Z,58.54
2016-10-25T03:49:55.124Z,58.83
2016-10-25T03:50:55.097Z,58.64
2016-10-25T03:51:55.080Z,58.83
2016-10-25T03:52:55.062Z,58.73
2016-10-25T03:53:55.047Z,58.73
2016-10-25T03:54:55.027Z,59.02
2016-10-25T03:55:55.009Z,58.92
2016-10-25T03:56:55.003Z,58.73
2016-10-25T03:57:54.978Z,59.22
2016-10-25T03:58:54.962Z,58.73
2016-10-25T03:59:54.626Z,58.64
2016-10-25T04:00:54.923Z,58.83
2016-10-25T04:01:54.597Z,58.73
2016-10-25T04:02:54.894Z,58.64
2016-10-25T04:03:54.877Z,59.02
2016-10-25T04:04:54.549Z,59.69
2016-10-25T04:05:54.851Z,59.41
2016-10-25T04:06:54.823Z,59.02
2016-10-25T04:07:54.814Z,58.73
2016-10-25T04:08:54.796Z,58.57
2016-10-25T04:09:54.783Z,58.76
2016-10-25T04:10:54.763Z,58.37
2016-10-25T04:11:54.745Z,58.37
2016-10-25T04:12:54.726Z,58.57
2016-10-25T04:13:54.713Z,58.47
2016-10-25T04:14:54.698Z,58.6
2016-10-25T04:15:54.676Z,58.4
2016-10-25T04:16:54.657Z,57.83
2016-10-25T04:17:54.650Z,58.22
2016-10-25T04:18:54.631Z,58.12
2016-10-25T04:19:54.612Z,57.73
2016-10-25T04:20:54.592Z,57.83
2016-10-25T04:21:54.275Z,58.02
2016-10-25T04:22:54.564Z,58.12
2016-10-25T04:23:54.545Z,57.54
2016-10-25T04:24:54.528Z,57.45
2016-10-25T04:25:54.514Z,57.64
2016-10-25T04:26:54.499Z,57.54
2016-10-25T04:27:54.482Z,57.92
2016-10-25T04:28:54.149Z,57.64
2016-10-25T04:29:54.447Z,57.45
2016-10-25T04:30:54.434Z,57.54
2016-10-25T04:31:54.411Z,57.73
2016-10-25T04:32:54.398Z,57.45
2016-10-25T04:33:54.377Z,57.45
2016-10-25T04:34:54.361Z,57.73
2016-10-25T04:35:54.347Z,57.73
2016-10-25T04:36:54.337Z,57.54
2016-10-25T04:37:54.315Z,57.95
2016-10-25T04:38:54.301Z,57.73
2016-10-25T04:39:54.314Z,57.95
2016-10-25T04:40:54.262Z,58.05
2016-10-25T04:41:54.255Z,57.64
2016-10-25T04:42:54.234Z,57.67
2016-10-25T04:43:53.911Z,57.86
2016-10-25T04:44:54.202Z,58.02
2016-10-25T04:45:54.184Z,58.15
2016-10-25T04:46:54.169Z,57.95
2016-10-25T04:47:54.150Z,57.73
2016-10-25T04:48:54.141Z,57.67
2016-10-25T04:49:54.120Z,57.67
2016-10-25T04:50:54.104Z,57.67
2016-10-25T04:51:54.085Z,57.67
2016-10-25T04:52:54.074Z,57.95
2016-10-25T04:53:54.055Z,57.86
2016-10-25T04:54:54.074Z,57.95
2016-10-25T04:55:54.022Z,57.76
2016-10-25T04:56:53.690Z,57.57
2016-10-25T04:57:53.986Z,57.86
2016-10-25T04:58:53.971Z,57.76
2016-10-25T04:59:53.954Z,57.86
2016-10-25T05:00:53.940Z,58.05
2016-10-25T05:01:53.605Z,58.05
2016-10-25T05:02:53.940Z,58.24
2016-10-25T05:03:53.573Z,57.67
2016-10-25T05:04:53.874Z,58.05
2016-10-25T05:05:53.547Z,57.86
2016-10-25T05:06:53.847Z,58.05
2016-10-25T05:07:53.828Z,57.47
2016-10-25T05:08:53.813Z,58.05
2016-10-25T05:09:53.480Z,58.05
2016-10-25T05:10:53.774Z,57.67
2016-10-25T05:11:53.443Z,57.37
2016-10-25T05:12:53.743Z,57.37
2016-10-25T05:13:53.731Z,57.37
2016-10-25T05:14:53.402Z,57.37
2016-10-25T05:15:53.697Z,57.37
2016-10-25T05:16:53.684Z,57.67
2016-10-25T05:17:53.664Z,57.37
2016-10-25T05:18:53.647Z,57.57
2016-10-25T05:19:53.630Z,57.57
2016-10-25T05:20:53.617Z,57.47
2016-10-25T05:21:53.285Z,57.76
2016-10-25T05:22:53.589Z,57.37
2016-10-25T05:23:53.570Z,57.76
2016-10-25T05:24:53.586Z,57.37
2016-10-25T05:25:53.217Z,57.57
2016-10-25T05:26:53.520Z,57.67
2016-10-25T05:27:53.508Z,57.37
2016-10-25T05:28:53.487Z,57.5
2016-10-25T05:29:53.466Z,57.28
2016-10-25T05:30:53.457Z,57.28
2016-10-25T05:31:53.433Z,57.37
2016-10-25T05:32:53.418Z,57.02
2016-10-25T05:33:53.408Z,57.4
2016-10-25T05:34:53.400Z,56.9
2016-10-25T05:35:53.375Z,56.41
2016-10-25T05:36:53.364Z,56.41
2016-10-25T05:37:53.344Z,56.03
2016-10-25T05:38:53.011Z,55.52
2016-10-25T05:39:53.314Z,55.62
2016-10-25T05:40:53.291Z,55.23
2016-10-25T05:41:53.276Z,55.81
2016-10-25T05:42:53.267Z,55.9
2016-10-25T05:43:53.242Z,55.62
2016-10-25T05:44:53.230Z,56.32
2016-10-25T05:45:53.211Z,55.45
2016-10-25T05:46:53.195Z,57.09
2016-10-25T05:47:53.178Z,57.37
2016-10-25T05:48:53.166Z,57.67
2016-10-25T05:49:53.149Z,57.67
2016-10-25T05:50:53.137Z,57.67
2016-10-25T05:51:53.119Z,57.95
2016-10-25T05:52:53.112Z,57.37
2016-10-25T05:53:53.085Z,57.28
2016-10-25T05:54:53.062Z,57.28
2016-10-25T05:55:53.057Z,57.37
2016-10-25T05:56:53.032Z,57.37
2016-10-25T05:57:53.024Z,57.86
2016-10-25T05:58:53.003Z,57.47
2016-10-25T05:59:52.986Z,58.24
2016-10-25T06:00:52.975Z,58.15
2016-10-25T06:01:52.641Z,58.34
2016-10-25T06:02:52.939Z,57.76
2016-10-25T06:03:52.920Z,57.95
2016-10-25T06:04:52.907Z,58.24
2016-10-25T06:05:52.891Z,57.86
2016-10-25T06:06:52.879Z,57.95
2016-10-25T06:07:52.539Z,57.95
2016-10-25T06:08:52.842Z,58.05
2016-10-25T06:09:52.823Z,58.15
2016-10-25T06:10:52.810Z,58.34
2016-10-25T06:11:52.793Z,58.34
2016-10-25T06:12:52.777Z,58.05
2016-10-25T06:13:52.441Z,57.95
2016-10-25T06:14:52.428Z,57.95
2016-10-25T06:15:52.731Z,57.86
2016-10-25T06:16:52.715Z,58.44
2016-10-25T06:17:52.700Z,57.57
2016-10-25T06:18:52.679Z,57.67
2016-10-25T06:19:52.676Z,57.76
2016-10-25T06:20:52.650Z,57.47
2016-10-25T06:21:52.629Z,57.86
2016-10-25T06:22:52.298Z,57.95
2016-10-25T06:23:52.607Z,57.67
2016-10-25T06:24:52.582Z,57.86
2016-10-25T06:25:52.571Z,57.86
2016-10-25T06:26:52.557Z,57.95
2016-10-25T06:27:52.216Z,57.95
2016-10-25T06:28:52.517Z,58.15
2016-10-25T06:29:52.499Z,57.67
2016-10-25T06:30:52.488Z,57.57
2016-10-25T06:31:52.472Z,57.95
2016-10-25T06:32:52.459Z,57.95
2016-10-25T06:33:52.446Z,58.24
2016-10-25T06:34:52.419Z,58.05
2016-10-25T06:35:52.092Z,58.15
2016-10-25T06:36:52.391Z,57.86
2016-10-25T06:37:52.376Z,57.86
2016-10-25T06:38:52.359Z,57.86
2016-10-25T06:39:52.025Z,57.76
2016-10-25T06:40:52.328Z,57.86
2016-10-25T06:41:52.313Z,58.15
2016-10-25T06:42:51.979Z,58.05
2016-10-25T06:43:51.965Z,57.67
2016-10-25T06:44:52.259Z,57.57
2016-10-25T06:45:52.244Z,58.05
2016-10-25T06:46:52.227Z,57.28
2016-10-25T06:47:51.898Z,57.47
2016-10-25T06:48:51.878Z,57.47
2016-10-25T06:49:52.177Z,57.47
2016-10-25T06:50:52.166Z,57.37
2016-10-25T06:51:52.147Z,57.54
2016-10-25T06:52:52.133Z,57.35
2016-10-25T06:53:52.117Z,57.37
2016-10-25T06:54:52.103Z,57.28
2016-10-25T06:55:52.078Z,57.45
2016-10-25T06:56:52.077Z,57.28
2016-10-25T06:57:52.054Z,57.47
2016-10-25T06:58:52.039Z,57.54
2016-10-25T06:59:52.020Z,57.67
2016-10-25T07:00:52.000Z,57.47
2016-10-25T07:01:51.991Z,57.76
2016-10-25T07:02:51.972Z,57.57
2016-10-25T07:03:51.953Z,57.45
2016-10-25T07:04:51.935Z,58.12
2016-10-25T07:05:51.934Z,57.64
2016-10-25T07:06:51.905Z,57.76
2016-10-25T07:07:51.576Z,58.05
2016-10-25T07:08:51.871Z,58.22
2016-10-25T07:09:51.863Z,58.02
2016-10-25T07:10:51.524Z,57.83
2016-10-25T07:11:51.825Z,57.73
2016-10-25T07:12:51.810Z,57.95
2016-10-25T07:13:51.851Z,57.83
2016-10-25T07:14:51.462Z,57.54
2016-10-25T07:15:51.760Z,57.92
2016-10-25T07:16:51.743Z,57.67
2016-10-25T07:17:51.722Z,57.83
2016-10-25T07:18:51.711Z,57.47
2016-10-25T07:19:51.704Z,57.73
2016-10-25T07:20:51.682Z,57.54
2016-10-25T07:21:51.667Z,57.73
2016-10-25T07:22:51.652Z,57.54
2016-10-25T07:23:51.321Z,58.12
2016-10-25T07:24:51.302Z,57.83
2016-10-25T07:25:51.599Z,57.73
2016-10-25T07:26:51.589Z,57.83
2016-10-25T07:27:51.571Z,57.83
2016-10-25T07:28:51.553Z,58.4
2016-10-25T07:29:51.217Z,57.73
2016-10-25T07:30:51.517Z,58.22
2016-10-25T07:31:51.507Z,57.92
2016-10-25T07:32:51.486Z,57.73
2016-10-25T07:33:51.473Z,57.83
2016-10-25T07:34:51.456Z,58.22
2016-10-25T07:35:51.439Z,58.12
2016-10-25T07:36:51.419Z,58.12
2016-10-25T07:37:51.406Z,57.92
2016-10-25T07:38:51.391Z,58.02
2016-10-25T07:39:51.378Z,58.12
2016-10-25T07:40:51.360Z,58.12
2016-10-25T07:41:51.341Z,58.02
2016-10-25T07:42:51.323Z,58.02
2016-10-25T07:43:51.307Z,58.12
2016-10-25T07:44:51.292Z,58.4
2016-10-25T07:45:51.282Z,58.6
2016-10-25T07:46:51.270Z,58.02
2016-10-25T07:47:51.248Z,58.22
2016-10-25T07:48:51.231Z,58.5
2016-10-25T07:49:51.216Z,58.4
2016-10-25T07:50:51.197Z,58.02
2016-10-25T07:51:51.175Z,58.02
2016-10-25T07:52:51.164Z,58.02
2016-10-25T07:53:51.153Z,58.31
2016-10-25T07:54:51.134Z,58.7
2016-10-25T07:55:51.117Z,58.79
2016-10-25T07:56:51.101Z,58.5
2016-10-25T07:57:51.088Z,58.02
2016-10-25T07:58:51.069Z,58.79
2016-10-25T07:59:51.058Z,58.02
2016-10-25T08:00:51.037Z,58.4
2016-10-25T08:01:50.706Z,58.79
2016-10-25T08:02:50.998Z,58.7
2016-10-25T08:03:50.989Z,58.4
2016-10-25T08:04:50.970Z,58.4
2016-10-25T08:05:50.954Z,58.5
2016-10-25T08:06:50.933Z,58.6
2016-10-25T08:07:50.922Z,58.4
2016-10-25T08:08:50.909Z,58.5
2016-10-25T08:09:50.887Z,58.6
2016-10-25T08:10:50.870Z,58.5
2016-10-25T08:11:50.541Z,58.31
2016-10-25T08:12:50.846Z,58.6
2016-10-25T08:13:50.504Z,58.79
2016-10-25T08:14:50.497Z,58.4
2016-10-25T08:15:50.790Z,58.5
2016-10-25T08:16:50.789Z,58.6
2016-10-25T08:17:50.442Z,58.4
2016-10-25T08:18:50.744Z,58.09
2016-10-25T08:19:50.726Z,58.31
2016-10-25T08:20:50.721Z,58.22
2016-10-25T08:21:50.699Z,58.5
2016-10-25T08:22:50.362Z,58.5
2016-10-25T08:23:50.665Z,58.6
2016-10-25T08:24:50.645Z,58.12
2016-10-25T08:25:50.636Z,58.22
2016-10-25T08:26:50.617Z,58.6
2016-10-25T08:27:50.594Z,58.22
2016-10-25T08:28:50.616Z,58.12
2016-10-25T08:29:50.563Z,58.31
2016-10-25T08:30:50.552Z,58.5
2016-10-25T08:31:50.547Z,58.31
2016-10-25T08:32:50.531Z,58.31
2016-10-25T08:33:50.500Z,58.6
2016-10-25T08:34:50.488Z,58.6
2016-10-25T08:35:50.468Z,58.57
2016-10-25T08:36:50.451Z,58.6
2016-10-25T08:37:50.438Z,58.6
2016-10-25T08:38:50.104Z,58.4
2016-10-25T08:39:50.401Z,58.4
2016-10-25T08:40:50.386Z,58.47
2016-10-25T08:41:50.375Z,58.31
2016-10-25T08:42:50.352Z,58.4
2016-10-25T08:43:50.337Z,58.4
2016-10-25T08:44:50.315Z,58.6
2016-10-25T08:45:50.314Z,58.4
2016-10-25T08:46:49.969Z,58.6
2016-10-25T08:47:50.275Z,58.6
2016-10-25T08:48:49.943Z,58.5
2016-10-25T08:49:49.929Z,58.5
2016-10-25T08:50:50.226Z,58.79
2016-10-25T08:51:50.212Z,58.7
2016-10-25T08:52:50.195Z,58.18
2016-10-25T08:53:50.174Z,58.37
2016-10-25T08:54:50.161Z,58.28
2016-10-25T08:55:50.144Z,58.67
2016-10-25T08:56:50.129Z,58.37
2016-10-25T08:57:50.109Z,58.37
2016-10-25T08:58:49.774Z,58.37
2016-10-25T08:59:49.761Z,58.47
2016-10-25T09:00:50.057Z,58.37
2016-10-25T09:01:50.046Z,58.22
2016-10-25T09:02:50.025Z,58.09
2016-10-25T09:03:50.008Z,58.31
2016-10-25T09:04:49.991Z,58.37
2016-10-25T09:05:49.974Z,58.37
2016-10-25T09:06:49.961Z,58.67
2016-10-25T09:07:49.951Z,58.7
2016-10-25T09:08:49.928Z,57.92
2016-10-25T09:09:49.915Z,58.02
2016-10-25T09:10:49.895Z,57.64
2016-10-25T09:11:49.880Z,58.18
2016-10-25T09:12:49.897Z,57.92
2016-10-25T09:13:49.532Z,58.31
2016-10-25T09:14:49.830Z,58.6
2016-10-25T09:15:49.813Z,58.31
2016-10-25T09:16:49.800Z,57.92
2016-10-25T09:17:49.781Z,57.83
2016-10-25T09:18:49.768Z,57.99
2016-10-25T09:19:49.752Z,58.09
2016-10-25T09:20:49.417Z,57.83
2016-10-25T09:21:49.716Z,58.37
2016-10-25T09:22:49.701Z,57.92
2016-10-25T09:23:49.685Z,57.99
2016-10-25T09:24:49.666Z,58.02
2016-10-25T09:25:49.649Z,58.18
2016-10-25T09:26:49.634Z,58.12
2016-10-25T09:27:49.619Z,58.12
2016-10-25T09:28:49.608Z,57.73
2016-10-25T09:29:49.590Z,58.31
2016-10-25T09:30:49.573Z,57.73
2016-10-25T09:31:49.239Z,57.9
2016-10-25T09:32:49.538Z,58.18
2016-10-25T09:33:49.521Z,57.7
2016-10-25T09:34:49.506Z,58.4
2016-10-25T09:35:49.492Z,58.12
2016-10-25T09:36:49.157Z,58.22
2016-10-25T09:37:49.140Z,58.18
2016-10-25T09:38:49.115Z,57.8
2016-10-25T09:39:49.424Z,57.9
2016-10-25T09:40:49.432Z,57.8
2016-10-25T09:41:49.085Z,57.9
2016-10-25T09:42:49.377Z,58.09
2016-10-25T09:43:49.359Z,58.18
2016-10-25T09:44:49.340Z,57.9
2016-10-25T09:45:49.323Z,57.99
2016-10-25T09:46:49.309Z,58.09
2016-10-25T09:47:49.290Z,57.8
2016-10-25T09:48:49.286Z,58.09
2016-10-25T09:49:48.940Z,57.99
2016-10-25T09:50:49.240Z,57.99
2016-10-25T09:51:49.223Z,58.37
2016-10-25T09:52:49.206Z,58.37
2016-10-25T09:53:49.187Z,58.76
2016-10-25T09:54:49.175Z,58.37
2016-10-25T09:55:49.156Z,58.57
2016-10-25T09:56:49.141Z,58.67
2016-10-25T09:57:48.808Z,57.99
2016-10-25T09:58:49.114Z,58.09
2016-10-25T09:59:48.777Z,58.47
2016-10-25T10:00:49.076Z,58.57
2016-10-25T10:01:49.060Z,58.67
2016-10-25T10:02:49.050Z,58.76
2016-10-25T10:03:49.031Z,58.57
2016-10-25T10:04:49.009Z,58.67
2016-10-25T10:05:48.994Z,58.57
2016-10-25T10:06:48.974Z,58.09
2016-10-25T10:07:48.962Z,58.57
2016-10-25T10:08:48.943Z,58.37
2016-10-25T10:09:48.613Z,58.37
2016-10-25T10:10:48.921Z,58.57
2016-10-25T10:11:48.895Z,58.67
2016-10-25T10:12:48.561Z,58.57
2016-10-25T10:13:48.546Z,58.57
2016-10-25T10:14:48.847Z,58.37
2016-10-25T10:15:48.862Z,58.28
2016-10-25T10:16:48.851Z,58.18
2016-10-25T10:17:48.799Z,58.57
2016-10-25T10:18:48.468Z,58.37
2016-10-25T10:19:48.448Z,58.37
2016-10-25T10:20:48.746Z,58.57
2016-10-25T10:21:48.724Z,58.47
2016-10-25T10:22:48.935Z,58.57
2016-10-25T10:23:48.694Z,58.18
2016-10-25T10:24:48.685Z,58.37
2016-10-25T10:25:48.664Z,58.47
2016-10-25T10:26:48.646Z,58.18
2016-10-25T10:27:48.635Z,58.47
2016-10-25T10:28:48.616Z,58.67
2016-10-25T10:29:48.597Z,58.47
2016-10-25T10:30:48.585Z,58.76
2016-10-25T10:31:48.563Z,58.47
2016-10-25T10:32:48.550Z,58.57
2016-10-25T10:33:48.530Z,58.76
2016-10-25T10:34:48.521Z,58.47
2016-10-25T10:35:48.184Z,58.57
2016-10-25T10:36:48.483Z,58.57
2016-10-25T10:37:48.467Z,58.28
2016-10-25T10:38:48.452Z,58.57
2016-10-25T10:39:48.428Z,58.28
2016-10-25T10:40:48.097Z,58.57
2016-10-25T10:41:48.408Z,58.37
2016-10-25T10:42:48.135Z,58.28
2016-10-25T10:43:48.370Z,58.18
2016-10-25T10:44:48.347Z,58.28
2016-10-25T10:45:48.343Z,58.28
2016-10-25T10:46:48.318Z,58.37
2016-10-25T10:47:48.299Z,58.18
2016-10-25T10:48:48.284Z,58.76
2016-10-25T10:49:48.265Z,58.18
2016-10-25T10:50:48.253Z,58.57
2016-10-25T10:51:47.916Z,58.76
2016-10-25T10:52:47.913Z,58.86
2016-10-25T10:53:48.198Z,58.57
2016-10-25T10:54:48.184Z,58.86
2016-10-25T10:55:48.171Z,58.57
2016-10-25T10:56:48.154Z,58.18
2016-10-25T10:57:48.135Z,58.57
2016-10-25T10:58:48.120Z,58.67
2016-10-25T10:59:47.816Z,58.67
2016-10-25T11:00:48.090Z,58.67
2016-10-25T11:01:48.070Z,58.67
2016-10-25T11:02:47.739Z,58.37
2016-10-25T11:03:47.724Z,58.57
2016-10-25T11:04:47.702Z,58.67
2016-10-25T11:05:48.007Z,58.76
2016-10-25T11:06:47.984Z,58.67
2016-10-25T11:07:47.969Z,58.76
2016-10-25T11:08:47.951Z,58.57
2016-10-25T11:09:47.934Z,58.76
2016-10-25T11:10:47.919Z,58.57
2016-10-25T11:11:47.898Z,58.67
2016-10-25T11:12:48.099Z,58.57
2016-10-25T11:13:47.873Z,58.67
2016-10-25T11:14:47.856Z,58.76
2016-10-25T11:15:47.841Z,58.47
2016-10-25T11:16:47.824Z,58.57
2016-10-25T11:17:47.809Z,58.47
2016-10-25T11:18:47.789Z,58.57
2016-10-25T11:19:47.772Z,58.67
2016-10-25T11:20:47.751Z,58.76
2016-10-25T11:21:47.736Z,58.76
2016-10-25T11:22:47.734Z,58.76
2016-10-25T11:23:47.707Z,58.67
2016-10-25T11:24:47.686Z,58.57
2016-10-25T11:25:47.675Z,58.67
2016-10-25T11:26:47.659Z,58.67
2016-10-25T11:27:47.643Z,58.76
2016-10-25T11:28:47.621Z,58.76
2016-10-25T11:29:47.606Z,58.76
2016-10-25T11:30:47.272Z,58.57
2016-10-25T11:31:47.573Z,58.76
2016-10-25T11:32:47.558Z,58.67
2016-10-25T11:33:47.543Z,58.37
2016-10-25T11:34:47.532Z,58.67
2016-10-25T11:35:47.507Z,58.67
2016-10-25T11:36:47.533Z,58.76
2016-10-25T11:37:47.474Z,58.76
2016-10-25T11:38:47.151Z,58.67
2016-10-25T11:39:47.440Z,58.67
2016-10-25T11:40:47.431Z,58.76
2016-10-25T11:41:47.409Z,58.57
2016-10-25T11:42:47.386Z,58.67
2016-10-25T11:43:47.377Z,58.57
2016-10-25T11:44:47.357Z,58.67
2016-10-25T11:45:47.349Z,58.73
2016-10-25T11:46:47.325Z,58.76
2016-10-25T11:47:47.310Z,58.76
2016-10-25T11:48:47.295Z,58.57
2016-10-25T11:49:47.277Z,58.73
2016-10-25T11:50:46.944Z,58.57
2016-10-25T11:51:47.239Z,58.67
2016-10-25T11:52:46.910Z,58.73
2016-10-25T11:53:47.205Z,58.57
2016-10-25T11:54:47.194Z,58.64
2016-10-25T11:55:47.171Z,58.54
2016-10-25T11:56:47.157Z,58.54
2016-10-25T11:57:47.154Z,58.64
2016-10-25T11:58:47.128Z,58.64
2016-10-25T11:59:47.108Z,58.54
2016-10-25T12:00:47.092Z,58.54
2016-10-25T12:01:46.759Z,58.64
2016-10-25T12:02:47.062Z,58.45
2016-10-25T12:03:47.044Z,58.54
2016-10-25T12:04:47.023Z,58.64
2016-10-25T12:05:47.013Z,58.73
2016-10-25T12:06:46.993Z,58.64
2016-10-25T12:07:46.978Z,58.64
2016-10-25T12:08:46.643Z,58.73
2016-10-25T12:09:46.625Z,58.73
2016-10-25T12:10:46.928Z,58.73
2016-10-25T12:11:46.595Z,58.73
2016-10-25T12:12:46.892Z,58.73
2016-10-25T12:13:46.878Z,58.45
2016-10-25T12:14:46.859Z,58.73
2016-10-25T12:15:46.526Z,58.64
2016-10-25T12:16:46.834Z,58.73
2016-10-25T12:17:46.814Z,58.64
2016-10-25T12:18:46.789Z,58.73
2016-10-25T12:19:46.771Z,58.64
2016-10-25T12:20:46.760Z,58.54
2016-10-25T12:21:46.753Z,56.52
2016-10-25T12:22:46.726Z,58.48
2016-10-25T12:23:46.711Z,60.47
2016-10-25T12:24:46.693Z,62.23
2016-10-25T12:25:46.677Z,63.99
2016-10-25T12:26:46.664Z,65.74
2016-10-25T12:27:46.678Z,66.13
2016-10-25T12:28:46.321Z,66.61
2016-10-25T12:29:46.603Z,65.74
2016-10-25T12:30:46.595Z,65.26
2016-10-25T12:31:46.579Z,65.55
2016-10-25T12:32:46.558Z,64.79
2016-10-25T12:33:46.543Z,64.25
2016-10-25T12:34:46.522Z,63.76
2016-10-25T12:35:46.505Z,63.99
2016-10-25T12:36:46.490Z,63.7
2016-10-25T12:37:46.474Z,63
2016-10-25T12:38:46.456Z,62.55
2016-10-25T12:39:46.123Z,61.05
2016-10-25T12:40:46.456Z,60.6
2016-10-25T12:41:46.405Z,60.12
2016-10-25T12:42:46.072Z,59
2016-10-25T12:43:46.368Z,58.94
2016-10-25T12:44:46.357Z,58.74
2016-10-25T12:45:46.018Z,58.64
2016-10-25T12:46:46.317Z,58.17
2016-10-25T12:47:46.298Z,58.39
2016-10-25T12:48:46.278Z,58.58
2016-10-25T12:49:45.947Z,58.67
2016-10-25T12:50:46.252Z,58.58
2016-10-25T12:51:46.227Z,57.9
2016-10-25T12:52:45.898Z,57.9
2016-10-25T12:53:46.196Z,58.2
2016-10-25T12:54:46.175Z,58.2
2016-10-25T12:55:46.162Z,57.9